Time;durP1;ratioP1;P1;durP2;ratioP2;P2;SDS_P1;SDS_P2;PMS_P1;PMS_P2;Temp;Humidity;BMP_temperature;BMP_pressure;BME280_temperature;BME280_humidity;BME280_pressure;Samples;Min_cycle;Max_cycle;Signal;HPM_P1;HPM_P2
2021/06/12 00:02:21;;;;;;;21.02;6.63;;;;;;;17.02;80.86;101799.66;5063388;28;20556;-64
2021/06/12 00:04:47;;;;;;;20.50;6.40;;;;;;;17.03;80.75;101796.09;5063350;28;20538;-64
2021/06/12 00:07:12;;;;;;;21.10;6.80;;;;;;;17.00;80.53;101802.31;5064655;28;20028;-64
2021/06/12 00:09:37;;;;;;;20.00;6.38;;;;;;;16.98;80.94;101800.56;5062292;28;20028;-64
2021/06/12 00:12:03;;;;;;;20.08;6.45;;;;;;;17.00;80.32;101805.00;5065146;28;20059;-64
2021/06/12 00:14:28;;;;;;;20.92;6.60;;;;;;;16.96;80.80;101800.56;5060957;28;20021;-64
2021/06/12 00:16:54;;;;;;;20.75;6.50;;;;;;;16.92;80.76;101798.84;5064319;28;20037;-64
2021/06/12 00:19:19;;;;;;;20.52;6.47;;;;;;;16.81;81.64;101792.66;5063302;28;20024;-64
2021/06/12 00:21:44;;;;;;;20.33;6.95;;;;;;;16.77;82.03;101793.56;5063004;28;20031;-64
2021/06/12 00:24:10;;;;;;;20.40;7.15;;;;;;;16.76;82.26;101798.03;5063441;28;20072;-64
2021/06/12 00:26:37;;;;;;;20.90;6.88;;;;;;;16.74;82.24;101798.00;5061978;28;20017;-64
2021/06/12 00:29:03;;;;;;;21.85;6.90;;;;;;;16.77;82.40;101793.56;5057779;28;20029;-64
2021/06/12 00:31:29;;;;;;;24.75;7.00;;;;;;;16.80;81.78;101788.19;5064514;28;20024;-65
2021/06/12 00:33:55;;;;;;;20.92;6.80;;;;;;;16.79;81.63;101792.66;5062712;28;20467;-64
2021/06/12 00:36:21;;;;;;;21.25;6.40;;;;;;;16.67;82.67;101792.72;5063469;28;20380;-64
2021/06/12 00:38:47;;;;;;;20.50;6.60;;;;;;;16.71;82.33;101791.81;5063345;28;20024;-64
2021/06/12 00:41:13;;;;;;;21.63;6.90;;;;;;;16.73;82.21;101798.94;5062446;28;20025;-65
2021/06/12 00:43:40;;;;;;;21.23;6.85;;;;;;;16.77;82.01;101799.78;5063229;28;20114;-63
2021/06/12 00:46:06;;;;;;;20.67;6.38;;;;;;;16.87;81.04;101792.59;5061483;28;20037;-63
2021/06/12 00:48:31;;;;;;;19.23;6.68;;;;;;;16.90;80.43;101787.28;5065373;28;20052;-63
2021/06/12 00:50:57;;;;;;;21.45;6.88;;;;;;;16.90;80.58;101784.59;5061828;28;20035;-63
2021/06/12 00:53:37;;;;;;;20.35;7.22;;;;;;;16.81;81.20;101773.97;5062976;28;20136;-63
2021/06/12 00:56:09;;;;;;;20.65;7.43;;;;;;;16.54;83.13;101781.22;5057031;28;20538;-63
2021/06/12 00:58:41;;;;;;;21.52;7.32;;;;;;;16.48;83.50;101783.94;5057794;28;20029;-63
2021/06/12 01:01:07;;;;;;;21.38;7.78;;;;;;;16.34;84.11;101768.88;5057924;28;20379;-63
2021/06/12 01:03:33;;;;;;;20.83;7.57;;;;;;;16.31;84.26;101773.34;5064562;28;20024;-63
2021/06/12 01:05:59;;;;;;;21.20;7.63;;;;;;;16.24;85.22;101777.84;5061526;28;20111;-63
2021/06/12 01:08:24;;;;;;;23.20;8.00;;;;;;;16.25;86.04;101774.28;5063221;28;20063;-63
2021/06/12 01:10:50;;;;;;;22.15;8.32;;;;;;;16.13;87.46;101774.31;5062411;28;20025;-63
2021/06/12 01:13:36;;;;;;;22.73;8.40;;;;;;;16.03;88.40;101762.78;5062340;28;20078;-63
2021/06/12 01:16:28;;;;;;;23.08;8.98;;;;;;;15.96;89.29;101764.59;5056856;28;20079;-63
2021/06/12 01:18:56;;;;;;;22.88;9.30;;;;;;;15.80;92.23;101765.53;5039772;28;20041;-63
2021/06/12 01:21:31;;;;;;;23.58;9.10;;;;;;;15.74;92.88;101762.84;5039986;28;20033;-63
2021/06/12 01:24:34;;;;;;;23.88;9.32;;;;;;;15.77;92.23;101765.50;5041191;28;20085;-63
2021/06/12 01:27:27;;;;;;;22.95;9.85;;;;;;;15.71;93.93;101763.75;5041573;28;20033;-63
2021/06/12 01:30:13;;;;;;;24.48;10.02;;;;;;;15.65;95.81;101770.00;5039664;28;20044;-63
2021/06/12 01:32:43;;;;;;;23.25;9.95;;;;;;;15.59;97.56;101775.31;5038997;28;20057;-64
2021/06/12 01:35:14;;;;;;;25.42;10.18;;;;;;;15.56;97.64;101778.00;5041998;28;20028;-66
2021/06/12 01:37:42;;;;;;;25.45;10.75;;;;;;;15.56;98.75;101772.66;5038804;28;20069;-67
2021/06/12 01:40:10;;;;;;;25.25;10.30;;;;;;;15.52;98.09;101766.47;5041747;28;20104;-68
2021/06/12 01:42:37;;;;;;;25.70;10.45;;;;;;;15.59;98.33;101772.66;5038542;28;20160;-66
2021/06/12 01:45:04;;;;;;;23.92;10.25;;;;;;;15.52;98.95;101765.56;5034444;28;20033;-65
2021/06/12 01:47:31;;;;;;;26.40;10.38;;;;;;;15.45;100.00;101764.69;5041428;28;20025;-68
2021/06/12 01:49:58;;;;;;;24.35;9.95;;;;;;;15.47;100.00;101767.34;5039203;28;20522;-67
2021/06/12 01:52:24;;;;;;;24.60;10.15;;;;;;;15.41;100.00;101770.91;5040378;28;20552;-65
2021/06/12 01:54:51;;;;;;;26.02;10.82;;;;;;;15.38;100.00;101764.69;5040099;28;20029;-65
2021/06/12 01:57:17;;;;;;;25.90;10.68;;;;;;;15.35;100.00;101768.25;5059895;28;20033;-67
2021/06/12 01:59:43;;;;;;;25.73;10.70;;;;;;;15.33;100.00;101772.69;5063051;28;20020;-66
2021/06/12 02:02:09;;;;;;;23.83;10.45;;;;;;;15.38;100.00;101765.59;5060526;28;20067;-64
2021/06/12 02:04:38;;;;;;;24.42;10.30;;;;;;;15.32;100.00;101769.16;5065348;28;20024;-65
2021/06/12 02:07:05;;;;;;;23.77;10.10;;;;;;;15.31;100.00;101777.13;5060316;28;20044;-67
2021/06/12 02:09:32;;;;;;;25.63;10.73;;;;;;;15.27;100.00;101778.03;5067245;28;20107;-67
2021/06/12 02:11:58;;;;;;;24.00;9.90;;;;;;;15.23;100.00;101773.56;5065254;28;20028;-68
2021/06/12 02:14:24;;;;;;;23.88;9.98;;;;;;;15.21;100.00;101778.91;5066747;28;20033;-65
2021/06/12 02:16:51;;;;;;;26.42;10.63;;;;;;;15.18;100.00;101783.34;5065745;28;20032;-68
2021/06/12 02:19:17;;;;;;;23.38;10.10;;;;;;;15.22;100.00;101780.69;5065397;28;20028;-66
2021/06/12 02:21:43;;;;;;;23.98;10.20;;;;;;;15.23;100.00;101770.91;5066698;28;20150;-65
2021/06/12 02:24:09;;;;;;;25.88;9.70;;;;;;;15.22;100.00;101762.06;5063885;28;20112;-67
2021/06/12 02:26:39;;;;;;;23.33;9.52;;;;;;;15.19;100.00;101774.47;5067293;28;20098;-63
2021/06/12 02:29:07;;;;;;;25.08;10.05;;;;;;;15.16;100.00;101776.25;5060206;28;20016;-63
2021/06/12 02:31:40;;;;;;;24.13;9.80;;;;;;;15.13;100.00;101778.00;5067082;28;20111;-68
2021/06/12 02:34:06;;;;;;;25.00;10.55;;;;;;;15.09;100.00;101785.13;5060011;28;20044;-64
2021/06/12 02:36:31;;;;;;;25.25;9.98;;;;;;;15.08;100.00;101790.44;5067175;28;20059;-63
2021/06/12 02:38:57;;;;;;;24.67;9.73;;;;;;;15.09;100.00;101792.22;5064269;28;20117;-67
2021/06/12 02:41:22;;;;;;;24.38;9.80;;;;;;;15.11;100.00;101790.44;5065693;28;20045;-67
2021/06/12 02:43:48;;;;;;;25.67;10.07;;;;;;;15.02;100.00;101791.31;5065477;28;20028;-68
2021/06/12 02:46:16;;;;;;;25.70;10.00;;;;;;;14.99;100.00;101797.53;5064228;28;20464;-67
2021/06/12 02:48:44;;;;;;;25.33;10.15;;;;;;;15.00;100.00;101798.44;5066496;28;20082;-67
2021/06/12 02:51:10;;;;;;;23.92;9.95;;;;;;;14.94;100.00;101794.00;5063788;28;20380;-67
2021/06/12 02:53:42;;;;;;;26.33;10.38;;;;;;;14.93;100.00;101807.31;5066712;28;20041;-67
2021/06/12 02:56:08;;;;;;;24.70;10.63;;;;;;;14.91;100.00;101799.31;5059893;28;20067;-69
2021/06/12 02:58:35;;;;;;;26.40;10.38;;;;;;;14.91;100.00;101788.66;5059297;28;20029;-66
2021/06/12 03:01:01;;;;;;;24.88;10.57;;;;;;;14.90;100.00;101775.34;5066333;28;20450;-67
2021/06/12 03:03:28;;;;;;;25.25;10.35;;;;;;;14.90;100.00;101778.91;5064115;28;20056;-67
2021/06/12 03:05:56;;;;;;;26.85;12.02;;;;;;;14.89;100.00;101782.44;5065390;28;20029;-66
2021/06/12 03:08:25;;;;;;;27.48;11.93;;;;;;;14.85;100.00;101767.34;5064379;28;20078;-67
2021/06/12 03:10:52;;;;;;;27.38;12.15;;;;;;;14.82;100.00;101783.31;5064634;28;20025;-67
2021/06/12 03:13:22;;;;;;;27.75;12.23;;;;;;;14.80;100.00;101770.00;5065151;28;20024;-67
2021/06/12 03:15:48;;;;;;;27.33;12.88;;;;;;;14.82;100.00;101770.00;5063035;28;20030;-65
2021/06/12 03:18:14;;;;;;;28.13;13.45;;;;;;;14.78;100.00;101776.19;5065459;28;20082;-65
2021/06/12 03:20:41;;;;;;;28.15;12.65;;;;;;;14.79;100.00;101772.66;5063400;28;20026;-66
2021/06/12 03:23:08;;;;;;;29.48;13.88;;;;;;;14.78;100.00;101778.88;5066135;28;20027;-67
2021/06/12 03:25:34;;;;;;;29.02;13.05;;;;;;;14.72;100.00;101777.09;5058904;28;20060;-66
2021/06/12 03:28:00;;;;;;;27.65;12.85;;;;;;;14.79;100.00;101785.97;5066097;28;20032;-65
2021/06/12 03:30:26;;;;;;;29.40;13.77;;;;;;;14.71;100.00;101795.69;5063665;28;20028;-68
2021/06/12 03:32:52;;;;;;;31.90;14.80;;;;;;;14.68;100.00;101793.03;5064373;28;20025;-66
2021/06/12 03:35:19;;;;;;;28.48;14.02;;;;;;;14.63;100.00;101793.94;5064966;28;20036;-65
2021/06/12 03:37:44;;;;;;;29.30;14.13;;;;;;;14.61;100.00;101793.03;5063464;28;20041;-67
2021/06/12 03:40:11;;;;;;;29.65;14.60;;;;;;;14.60;100.00;101796.53;5065551;28;20036;-67
2021/06/12 03:42:40;;;;;;;30.40;15.00;;;;;;;14.62;100.00;101794.81;5062561;28;20040;-65
2021/06/12 03:45:09;;;;;;;30.50;14.65;;;;;;;14.61;100.00;101784.13;5058311;28;20483;-67
2021/06/12 03:47:35;;;;;;;32.00;15.38;;;;;;;14.64;100.00;101784.16;5058466;28;20025;-67
2021/06/12 03:50:03;;;;;;;31.88;15.90;;;;;;;14.66;100.00;101782.38;5065504;28;20029;-68
2021/06/12 03:52:29;;;;;;;29.67;15.38;;;;;;;14.68;100.00;101774.41;5062549;28;20135;-67
2021/06/12 03:54:58;;;;;;;31.77;16.08;;;;;;;14.66;100.00;101778.84;5064289;28;20440;-63
2021/06/12 03:57:25;;;;;;;32.08;16.60;;;;;;;14.67;100.00;101783.31;5063643;28;20032;-63
2021/06/12 03:59:52;;;;;;;32.45;16.67;;;;;;;14.70;100.00;101780.63;5063516;28;20120;-63
2021/06/12 04:02:17;;;;;;;33.05;16.23;;;;;;;14.73;100.00;101784.19;5064172;28;20430;-63
2021/06/12 04:04:45;;;;;;;31.20;16.17;;;;;;;14.72;100.00;101801.06;5062745;28;20025;-63
2021/06/12 04:07:10;;;;;;;32.20;16.98;;;;;;;14.73;100.00;101793.94;5065151;28;20090;-62
2021/06/12 04:09:36;;;;;;;33.05;17.75;;;;;;;14.71;100.00;101803.69;5061866;28;20411;-62
2021/06/12 04:12:01;;;;;;;31.45;16.90;;;;;;;14.72;100.00;101809.03;5065524;28;20021;-62
2021/06/12 04:14:27;;;;;;;31.17;16.33;;;;;;;14.77;100.00;101812.59;5062844;28;20029;-63
2021/06/12 04:16:52;;;;;;;33.15;17.08;;;;;;;14.77;100.00;101811.72;5063641;28;20383;-63
2021/06/12 04:19:18;;;;;;;34.30;17.73;;;;;;;14.80;100.00;101822.34;5064151;28;20028;-62
2021/06/12 04:21:43;;;;;;;34.70;17.92;;;;;;;14.83;100.00;101817.03;5062381;28;20051;-62
2021/06/12 04:24:09;;;;;;;33.70;17.65;;;;;;;14.85;100.00;101817.91;5064873;28;20467;-62
2021/06/12 04:26:34;;;;;;;32.75;18.45;;;;;;;14.84;100.00;101812.59;5061932;28;20033;-62
2021/06/12 04:28:59;;;;;;;33.95;18.85;;;;;;;14.93;100.00;101817.94;5064367;28;20017;-62
2021/06/12 04:31:25;;;;;;;33.53;18.92;;;;;;;15.01;100.00;101809.97;5063010;28;20531;-62
2021/06/12 04:33:51;;;;;;;32.90;19.20;;;;;;;15.08;100.00;101814.41;5063345;28;20106;-62
2021/06/12 04:36:16;;;;;;;35.05;19.23;;;;;;;15.12;100.00;101802.88;5063839;28;20406;-62
2021/06/12 04:38:41;;;;;;;33.70;19.67;;;;;;;15.21;100.00;101792.22;5061703;28;20029;-62
2021/06/12 04:41:07;;;;;;;34.30;19.30;;;;;;;15.25;100.00;101788.69;5064713;28;20024;-62
2021/06/12 04:43:33;;;;;;;34.58;19.33;;;;;;;15.22;100.00;101786.00;5061469;28;20036;-62
2021/06/12 04:45:58;;;;;;;35.30;21.73;;;;;;;15.27;100.00;101791.34;5064179;28;20057;-62
2021/06/12 04:48:23;;;;;;;34.75;20.17;;;;;;;15.25;100.00;101799.34;5062761;28;20040;-63
2021/06/12 04:50:49;;;;;;;36.00;22.45;;;;;;;15.20;100.00;101795.75;5062471;28;20059;-62
2021/06/12 04:53:14;;;;;;;36.42;21.60;;;;;;;15.25;100.00;101804.66;5063855;28;20544;-62
2021/06/12 04:55:40;;;;;;;36.53;23.05;;;;;;;15.25;100.00;101796.66;5061451;28;20082;-62
2021/06/12 04:58:06;;;;;;;36.63;22.42;;;;;;;15.23;100.00;101801.13;5064670;28;20028;-62
2021/06/12 05:00:32;;;;;;;37.80;22.33;;;;;;;15.30;100.00;101799.31;5061838;28;20075;-62
2021/06/12 05:02:57;;;;;;;35.20;22.27;;;;;;;15.34;100.00;101794.00;5063501;28;20418;-64
2021/06/12 05:05:23;;;;;;;37.13;22.38;;;;;;;15.46;100.00;101798.41;5062546;28;20021;-62
2021/06/12 05:07:48;;;;;;;36.25;23.08;;;;;;;15.57;100.00;101805.53;5062380;28;20028;-62
2021/06/12 05:10:14;;;;;;;38.00;24.20;;;;;;;15.62;100.00;101811.75;5063640;28;20033;-62
2021/06/12 05:12:40;;;;;;;38.50;22.08;;;;;;;15.74;100.00;101806.41;5061176;28;20032;-62
2021/06/12 05:15:09;;;;;;;37.08;23.02;;;;;;;15.67;100.00;101813.50;5057227;28;20107;-62
2021/06/12 05:17:36;;;;;;;36.50;22.83;;;;;;;15.75;100.00;101821.50;5056791;28;20116;-63
2021/06/12 05:20:02;;;;;;;37.88;22.60;;;;;;;15.76;100.00;101825.06;5063947;28;20029;-63
2021/06/12 05:22:28;;;;;;;37.97;23.52;;;;;;;15.80;100.00;101824.16;5061912;28;20513;-65
2021/06/12 05:24:56;;;;;;;38.67;22.23;;;;;;;15.87;100.00;101833.94;5062833;28;20029;-62
2021/06/12 05:27:21;;;;;;;36.00;22.48;;;;;;;15.86;100.00;101834.84;5062559;28;20484;-62
2021/06/12 05:29:47;;;;;;;38.88;24.85;;;;;;;15.82;100.00;101841.94;5061933;28;20029;-62
2021/06/12 05:32:13;;;;;;;38.83;23.90;;;;;;;15.74;100.00;101841.06;5063776;28;20487;-62
2021/06/12 05:34:40;;;;;;;40.28;24.75;;;;;;;15.68;100.00;101846.38;5060630;28;20123;-62
2021/06/12 05:37:05;;;;;;;40.10;26.90;;;;;;;15.74;100.00;101840.16;5056884;28;20454;-61
2021/06/12 05:39:31;;;;;;;37.10;24.27;;;;;;;15.91;100.00;101840.16;5064739;28;20020;-65
2021/06/12 05:41:56;;;;;;;40.05;26.38;;;;;;;15.89;100.00;101839.25;5065934;28;20031;-65
2021/06/12 05:44:22;;;;;;;43.08;26.38;;;;;;;15.76;100.00;101849.06;5066281;28;20024;-63
2021/06/12 05:46:49;;;;;;;40.80;25.75;;;;;;;15.79;100.00;101847.28;5067088;28;20021;-63
2021/06/12 05:49:15;;;;;;;43.47;27.23;;;;;;;15.85;100.00;101854.38;5065439;28;20033;-65
2021/06/12 05:51:40;;;;;;;42.92;27.52;;;;;;;15.78;100.00;101847.25;5067904;28;20085;-66
2021/06/12 05:54:05;;;;;;;41.95;27.02;;;;;;;15.74;100.00;101848.16;5064313;28;20408;-66
2021/06/12 05:56:31;;;;;;;43.55;28.15;;;;;;;15.79;100.00;101865.06;5067406;28;20394;-65
2021/06/12 05:58:56;;;;;;;45.03;28.02;;;;;;;15.83;100.00;101872.19;5065858;28;20463;-67
2021/06/12 06:01:21;;;;;;;41.88;28.00;;;;;;;15.75;100.00;101863.25;5066062;28;20480;-66
2021/06/12 06:03:47;;;;;;;43.10;29.10;;;;;;;15.84;100.00;101874.84;5066982;28;20117;-65
2021/06/12 06:06:12;;;;;;;45.33;29.23;;;;;;;15.92;100.00;101873.94;5064921;28;20475;-64
2021/06/12 06:08:37;;;;;;;46.60;30.35;;;;;;;15.83;100.00;101874.84;5067912;28;20146;-65
2021/06/12 06:11:06;;;;;;;44.50;30.08;;;;;;;15.88;100.00;101885.50;5064575;28;20036;-64
2021/06/12 06:13:42;;;;;;;42.45;28.60;;;;;;;15.83;100.00;101883.72;5067064;28;20464;-65
2021/06/12 06:16:08;;;;;;;48.42;30.70;;;;;;;15.81;100.00;101880.19;5060376;28;20047;-63
2021/06/12 06:18:35;;;;;;;46.53;31.17;;;;;;;15.87;100.00;101871.25;5067514;28;20025;-66
2021/06/12 06:21:00;;;;;;;45.67;30.83;;;;;;;15.76;100.00;101868.59;5064674;28;20037;-66
2021/06/12 06:23:26;;;;;;;47.97;32.65;;;;;;;15.74;100.00;101865.06;5065993;28;20376;-63
2021/06/12 06:25:51;;;;;;;47.85;31.25;;;;;;;15.74;100.00;101872.13;5065767;28;20089;-66
2021/06/12 06:28:17;;;;;;;47.97;31.20;;;;;;;15.74;100.00;101872.13;5064721;28;20029;-65
2021/06/12 06:30:43;;;;;;;48.42;32.15;;;;;;;15.73;100.00;101871.25;5067102;28;20029;-67
2021/06/12 06:33:08;;;;;;;63.72;35.65;;;;;;;15.83;100.00;101878.38;5063967;28;20523;-66
2021/06/12 06:35:33;;;;;;;49.97;34.22;;;;;;;15.88;100.00;101869.50;5067000;28;20369;-65
2021/06/12 06:37:59;;;;;;;57.15;34.50;;;;;;;15.90;100.00;101868.63;5064428;28;20029;-67
2021/06/12 06:40:25;;;;;;;47.45;31.80;;;;;;;16.01;100.00;101865.91;5065643;28;20439;-65
2021/06/12 06:42:50;;;;;;;46.40;32.55;;;;;;;16.16;100.00;101875.66;5065340;28;20376;-66
2021/06/12 06:45:15;;;;;;;50.28;33.53;;;;;;;16.31;100.00;101870.28;5063909;28;20029;-67
2021/06/12 06:47:41;;;;;;;47.58;33.53;;;;;;;16.35;100.00;101876.50;5067054;28;20477;-67
2021/06/12 06:50:07;;;;;;;47.72;31.65;;;;;;;16.51;100.00;101872.88;5063331;28;20037;-68
2021/06/12 06:52:33;;;;;;;47.03;33.63;;;;;;;16.66;98.27;101874.59;5066508;28;20025;-64
2021/06/12 06:54:58;;;;;;;47.17;32.85;;;;;;;16.85;98.38;101879.84;5064434;28;20052;-67
2021/06/12 06:57:24;;;;;;;45.67;31.83;;;;;;;17.05;94.26;101886.00;5065099;28;20338;-67
2021/06/12 06:59:49;;;;;;;45.17;31.75;;;;;;;17.12;94.70;101881.50;5065804;28;20024;-67
2021/06/12 07:02:15;;;;;;;45.65;32.22;;;;;;;17.29;92.35;101888.53;5063862;28;20028;-68
2021/06/12 07:04:40;;;;;;;46.47;31.25;;;;;;;17.46;90.22;101888.38;5066413;28;20472;-67
2021/06/12 07:07:06;;;;;;;46.25;32.63;;;;;;;17.34;89.76;101895.56;5059231;28;20121;-67
2021/06/12 07:09:31;;;;;;;46.70;32.78;;;;;;;17.22;92.17;101896.56;5066133;28;20021;-67
2021/06/12 07:11:59;;;;;;;45.13;31.27;;;;;;;17.33;90.97;101915.22;5064148;28;20021;-65
2021/06/12 07:14:25;;;;;;;44.63;29.45;;;;;;;17.56;89.68;101901.69;5065142;28;20349;-67
2021/06/12 07:16:51;;;;;;;43.20;30.15;;;;;;;17.69;86.96;101897.13;5065205;28;20031;-67
2021/06/12 07:19:16;;;;;;;45.83;31.48;;;;;;;17.69;86.88;101899.78;5063605;28;20021;-68
2021/06/12 07:21:42;;;;;;;43.80;29.77;;;;;;;17.78;86.03;101901.50;5066392;28;20542;-67
2021/06/12 07:24:07;;;;;;;42.30;30.40;;;;;;;17.87;85.43;101900.53;5061513;28;20041;-67
2021/06/12 07:26:32;;;;;;;43.80;29.98;;;;;;;18.01;86.17;101890.59;5066044;28;20032;-68
2021/06/12 07:28:58;;;;;;;43.13;30.75;;;;;;;18.35;85.20;101900.03;5064193;28;20150;-67
2021/06/12 07:31:23;;;;;;;41.53;29.20;;;;;;;18.47;82.22;101894.56;5064374;28;20040;-66
2021/06/12 07:33:48;;;;;;;40.45;27.85;;;;;;;18.71;81.49;101898.75;5065004;28;20027;-67
2021/06/12 07:36:14;;;;;;;39.35;27.90;;;;;;;18.72;79.67;101894.25;5063069;28;20033;-68
2021/06/12 07:38:39;;;;;;;39.08;27.95;;;;;;;18.82;80.15;101901.25;5065987;28;20021;-67
2021/06/12 07:41:04;;;;;;;42.80;29.15;;;;;;;18.94;80.67;101893.06;5062906;28;20411;-66
2021/06/12 07:43:30;;;;;;;39.53;27.30;;;;;;;19.12;77.75;101908.03;5064892;28;20029;-64
2021/06/12 07:45:55;;;;;;;38.60;27.88;;;;;;;18.88;77.75;101900.34;5064148;28;20052;-66
2021/06/12 07:48:20;;;;;;;38.92;26.58;;;;;;;18.88;75.97;101903.88;5064167;28;20075;-66
2021/06/12 07:50:46;;;;;;;36.35;27.15;;;;;;;18.79;76.45;101906.66;5065217;28;20036;-66
2021/06/12 07:53:11;;;;;;;38.38;26.42;;;;;;;18.97;76.34;101905.53;5062078;28;20496;-66
2021/06/12 07:55:37;;;;;;;36.42;26.27;;;;;;;19.01;75.49;101918.00;5065999;28;20040;-64
2021/06/12 07:58:02;;;;;;;35.45;25.05;;;;;;;19.10;74.72;101920.53;5062735;28;20029;-65
2021/06/12 08:00:28;;;;;;;35.75;23.88;;;;;;;19.13;72.98;101922.28;5064325;28;20033;-67
2021/06/12 08:02:54;;;;;;;35.50;24.35;;;;;;;19.20;74.35;101921.31;5061695;28;20115;-65
2021/06/12 08:05:20;;;;;;;33.92;23.08;;;;;;;19.19;72.72;101907.94;5061990;28;20052;-65
2021/06/12 08:07:45;;;;;;;33.17;22.85;;;;;;;19.41;72.37;101903.13;5064944;28;20027;-67
2021/06/12 08:10:11;;;;;;;35.03;23.52;;;;;;;19.64;73.22;101909.00;5062077;28;20456;-67
2021/06/12 08:12:36;;;;;;;34.58;23.85;;;;;;;19.66;71.42;101912.53;5065564;28;20159;-65
2021/06/12 08:15:04;;;;;;;34.67;23.58;;;;;;;19.85;71.59;101909.59;5062522;28;20384;-67
2021/06/12 08:17:30;;;;;;;30.70;21.33;;;;;;;20.05;69.44;101906.53;5064761;28;20036;-68
2021/06/12 08:19:55;;;;;;;31.00;19.02;;;;;;;20.20;67.68;101916.09;5063220;28;20028;-68
2021/06/12 08:22:20;;;;;;;29.10;19.35;;;;;;;20.29;69.52;101917.72;5063199;28;20056;-68
2021/06/12 08:24:46;;;;;;;31.45;19.40;;;;;;;20.35;67.67;101913.09;5064417;28;20112;-68
2021/06/12 08:27:11;;;;;;;31.35;19.90;;;;;;;20.18;69.04;101913.44;5061652;28;20100;-68
2021/06/12 08:29:37;;;;;;;30.67;20.58;;;;;;;19.84;69.96;101926.59;5057622;28;20028;-66
2021/06/12 08:32:04;;;;;;;29.55;17.70;;;;;;;19.49;69.24;101928.91;5064628;28;20017;-68
2021/06/12 08:34:29;;;;;;;30.35;18.25;;;;;;;19.23;70.72;101936.47;5062639;28;20353;-65
2021/06/12 08:36:55;;;;;;;30.15;18.42;;;;;;;19.06;72.40;101937.59;5063750;28;20024;-64
2021/06/12 08:39:20;;;;;;;28.88;16.88;;;;;;;19.41;69.49;101936.19;5063851;28;20341;-64
2021/06/12 08:41:45;;;;;;;26.58;15.57;;;;;;;19.72;68.60;101930.34;5061973;28;20025;-64
2021/06/12 08:44:11;;;;;;;29.85;15.85;;;;;;;19.96;66.92;101929.03;5064899;28;20602;-64
2021/06/12 08:46:39;;;;;;;26.17;15.65;;;;;;;20.01;66.33;101940.59;5057445;28;20048;-66
2021/06/12 08:49:37;;;;;;;25.20;13.75;;;;;;;20.43;66.16;101942.50;5063616;28;20112;-67
2021/06/12 08:52:02;;;;;;;23.85;11.55;;;;;;;20.40;62.59;101937.19;5063329;28;20048;-65
2021/06/12 08:54:28;;;;;;;22.83;10.82;;;;;;;20.61;61.19;101935.88;5060982;28;20052;-64
2021/06/12 08:56:54;;;;;;;25.30;10.98;;;;;;;20.74;60.59;101939.22;5063495;28;20029;-67
2021/06/12 08:59:23;;;;;;;24.95;11.75;;;;;;;20.66;60.74;101943.84;5064229;28;20031;-63
2021/06/12 09:01:49;;;;;;;24.13;10.40;;;;;;;20.43;59.82;101939.84;5062079;28;20494;-63
2021/06/12 09:04:28;;;;;;;22.85;10.68;;;;;;;20.53;59.73;101954.84;5064974;28;20111;-63
2021/06/12 09:07:39;;;;;;;22.45;10.52;;;;;;;20.46;60.56;101958.56;5063780;28;20476;-63
2021/06/12 09:10:05;;;;;;;21.42;8.93;;;;;;;20.85;59.27;101949.75;5061638;28;20031;-63
2021/06/12 09:12:49;;;;;;;21.27;8.30;;;;;;;21.24;57.41;101958.72;5059879;28;20032;-63
2021/06/12 09:15:17;;;;;;;20.40;7.32;;;;;;;21.30;55.78;101956.84;5030237;28;20037;-63
2021/06/12 09:17:50;;;;;;;20.13;7.40;;;;;;;21.21;55.57;101958.81;5058900;28;20091;-63
2021/06/12 09:20:19;;;;;;;21.40;8.15;;;;;;;21.10;55.01;101968.03;5061476;28;20167;-63
2021/06/12 09:22:44;;;;;;;21.38;7.57;;;;;;;20.73;54.12;101961.63;5059139;28;20468;-63
2021/06/12 09:25:30;;;;;;;19.95;7.10;;;;;;;20.44;55.62;101960.38;5062323;28;20035;-63
2021/06/12 09:27:56;;;;;;;21.33;7.22;;;;;;;20.63;55.54;101973.44;5061306;28;20037;-63
2021/06/12 09:30:29;;;;;;;19.90;6.22;;;;;;;20.96;53.98;101971.03;5060704;28;20035;-64
2021/06/12 09:32:54;;;;;;;20.40;6.75;;;;;;;21.12;52.53;101964.41;5060358;28;20124;-63
2021/06/12 09:35:29;;;;;;;19.90;6.50;;;;;;;21.64;50.57;101967.72;5061056;28;20123;-63
2021/06/12 09:37:55;;;;;;;21.02;6.70;;;;;;;21.90;48.16;101969.75;5043199;28;20029;-63
2021/06/12 09:40:22;;;;;;;21.42;6.60;;;;;;;22.11;48.78;101964.75;5059832;28;20037;-63
2021/06/12 09:42:49;;;;;;;19.38;6.25;;;;;;;22.35;47.27;101975.81;5061525;28;20017;-63
2021/06/12 09:45:24;;;;;;;20.73;6.45;;;;;;;22.60;47.34;101966.13;5063576;28;20029;-63
2021/06/12 09:47:50;;;;;;;18.55;6.00;;;;;;;22.80;45.62;101979.03;5061464;28;20070;-64
2021/06/12 09:50:23;;;;;;;19.30;6.30;;;;;;;22.61;46.41;101978.66;5063778;28;20024;-63
2021/06/12 09:52:50;;;;;;;19.88;5.93;;;;;;;22.69;44.93;101986.53;5059588;28;20079;-64
2021/06/12 09:55:31;;;;;;;19.13;6.32;;;;;;;22.61;44.72;101986.72;5063365;28;20036;-63
2021/06/12 09:57:59;;;;;;;21.85;6.10;;;;;;;22.53;44.75;101980.69;5062482;28;20086;-64
2021/06/12 10:00:38;;;;;;;20.08;6.60;;;;;;;22.58;44.95;101992.22;5062370;28;20107;-63
2021/06/12 10:03:15;;;;;;;19.80;6.70;;;;;;;22.63;43.94;101992.97;5063332;28;20037;-64
2021/06/12 10:05:40;;;;;;;20.80;6.80;;;;;;;23.01;44.44;101994.59;5057126;28;20029;-63
2021/06/12 10:08:05;;;;;;;20.83;6.47;;;;;;;23.14;44.47;101999.63;5063404;28;20073;-63
2021/06/12 10:10:30;;;;;;;20.27;6.05;;;;;;;23.50;42.66;101993.13;5061360;28;20047;-63
2021/06/12 10:12:59;;;;;;;19.08;5.82;;;;;;;23.35;42.70;101996.31;5062195;28;20025;-63
2021/06/12 10:15:24;;;;;;;20.33;5.90;;;;;;;23.35;43.27;101996.31;5062150;28;20024;-63
2021/06/12 10:17:51;;;;;;;20.90;6.03;;;;;;;23.92;41.58;101995.38;5061594;28;20357;-63
2021/06/12 10:20:22;;;;;;;20.17;6.00;;;;;;;24.66;40.19;101994.66;5063127;28;20020;-63
2021/06/12 10:22:52;;;;;;;20.40;5.93;;;;;;;25.17;39.49;102006.25;5060987;28;20029;-64
2021/06/12 10:25:20;;;;;;;19.30;5.65;;;;;;;25.34;38.96;102003.81;5063649;28;20380;-64
2021/06/12 10:27:45;;;;;;;19.70;5.93;;;;;;;26.38;37.81;101997.69;5064682;28;20020;-63
2021/06/12 10:30:13;;;;;;;20.45;6.22;;;;;;;26.71;35.97;102001.72;5067107;28;20031;-63
2021/06/12 10:32:49;;;;;;;20.35;6.00;;;;;;;27.36;35.33;101996.00;5059765;28;20036;-64
2021/06/12 10:35:20;;;;;;;19.50;5.57;;;;;;;27.18;35.23;102005.88;5061039;28;20579;-69
2021/06/12 10:38:14;;;;;;;21.65;6.18;;;;;;;27.09;35.37;101996.34;5067143;28;20028;-68
2021/06/12 10:40:46;;;;;;;20.13;6.13;;;;;;;26.24;36.79;102002.84;5059793;28;20040;-68
2021/06/12 10:43:17;;;;;;;20.10;6.03;;;;;;;26.22;36.57;102000.19;5060212;28;20033;-68
2021/06/12 10:46:04;;;;;;;21.30;6.43;;;;;;;25.66;37.53;102001.63;5060115;28;20025;-68
2021/06/12 10:48:39;;;;;;;18.83;5.90;;;;;;;25.53;38.96;102003.09;5064426;28;20032;-68
2021/06/12 10:51:05;;;;;;;19.75;6.10;;;;;;;24.95;40.02;102009.78;5063942;28;20122;-68
2021/06/12 10:53:34;;;;;;;19.67;6.07;;;;;;;24.57;39.16;102017.47;5065831;28;20500;-69
2021/06/12 10:56:01;;;;;;;20.00;5.88;;;;;;;25.18;38.41;102013.44;5064631;28;20048;-68
2021/06/12 10:58:33;;;;;;;19.00;5.80;;;;;;;26.10;36.86;102017.88;5065037;28;20028;-68
2021/06/12 11:01:14;;;;;;;20.65;6.25;;;;;;;26.64;36.48;102009.22;5064397;28;20028;-68
2021/06/12 11:04:12;;;;;;;20.98;5.90;;;;;;;27.21;36.51;102014.75;5059656;28;20068;-69
2021/06/12 11:09:18;;;;;;;19.13;5.70;;;;;;;28.15;31.81;102034.63;5057317;28;20033;-68
2021/06/12 11:11:50;;;;;;;21.08;5.70;;;;;;;28.69;31.74;102020.97;5057832;28;20451;-67
2021/06/12 11:14:21;;;;;;;22.00;6.28;;;;;;;28.03;32.80;102016.22;5058154;28;20025;-67
2021/06/12 11:17:11;;;;;;;19.60;5.63;;;;;;;27.07;34.18;102015.41;5063775;28;20048;-66